sensor_id;sensor_type;location;lat;lon;timestamp;temperature;humidity
11091;DHT22;5599;52.210;21.046;2023-08-20T00:00:34;23.40;99.90
11091;DHT22;5599;52.210;21.046;2023-08-20T00:03:12;23.40;99.90
11091;DHT22;5599;52.210;21.046;2023-08-20T00:05:42;23.40;99.90
11091;DHT22;5599;52.210;21.046;2023-08-20T00:08:11;23.30;99.90
11091;DHT22;5599;52.210;21.046;2023-08-20T00:10:40;23.30;99.90
11091;DHT22;5599;52.210;21.046;2023-08-20T00:13:11;23.30;99.90
11091;DHT22;5599;52.210;21.046;2023-08-20T00:15:40;23.30;99.90
11091;DHT22;5599;52.210;21.046;2023-08-20T00:18:10;23.30;99.90
11091;DHT22;5599;52.210;21.046;2023-08-20T00:20:39;23.40;99.90
11091;DHT22;5599;52.210;21.046;2023-08-20T00:23:09;23.30;99.90
11091;DHT22;5599;52.210;21.046;2023-08-20T00:25:39;23.40;99.90
11091;DHT22;5599;52.210;21.046;2023-08-20T00:28:09;23.50;99.90
11091;DHT22;5599;52.210;21.046;2023-08-20T00:30:38;23.50;18.00
11091;DHT22;5599;52.210;21.046;2023-08-20T00:33:07;23.50;88.50
11091;DHT22;5599;52.210;21.046;2023-08-20T00:35:37;23.30;99.90
11091;DHT22;5599;52.210;21.046;2023-08-20T00:38:06;23.20;1.00
11091;DHT22;5599;52.210;21.046;2023-08-20T00:40:35;23.10;1.00
11091;DHT22;5599;52.210;21.046;2023-08-20T00:43:04;23.10;12.30
11091;DHT22;5599;52.210;21.046;2023-08-20T00:45:35;23.10;26.30
11091;DHT22;5599;52.210;21.046;2023-08-20T00:48:05;23.10;1.00
11091;DHT22;5599;52.210;21.046;2023-08-20T00:50:35;23.10;1.00
11091;DHT22;5599;52.210;21.046;2023-08-20T00:53:04;23.20;1.00
11091;DHT22;5599;52.210;21.046;2023-08-20T00:55:34;23.20;1.00
11091;DHT22;5599;52.210;21.046;2023-08-20T00:58:03;23.20;1.00
11091;DHT22;5599;52.210;21.046;2023-08-20T01:00:34;23.20;1.00
11091;DHT22;5599;52.210;21.046;2023-08-20T01:03:04;23.10;1.00
11091;DHT22;5599;52.210;21.046;2023-08-20T01:05:38;23.20;1.00
11091;DHT22;5599;52.210;21.046;2023-08-20T01:08:20;23.20;1.00
11091;DHT22;5599;52.210;21.046;2023-08-20T01:10:56;23.10;1.00
11091;DHT22;5599;52.210;21.046;2023-08-20T01:13:26;23.10;1.00
11091;DHT22;5599;52.210;21.046;2023-08-20T01:15:57;23.10;1.00
11091;DHT22;5599;52.210;21.046;2023-08-20T01:18:26;23.10;1.00
11091;DHT22;5599;52.210;21.046;2023-08-20T01:21:01;23.10;1.00
11091;DHT22;5599;52.210;21.046;2023-08-20T01:26:52;23.10;1.00
11091;DHT22;5599;52.210;21.046;2023-08-20T01:29:27;23.10;1.00
11091;DHT22;5599;52.210;21.046;2023-08-20T01:31:56;23.10;1.00
11091;DHT22;5599;52.210;21.046;2023-08-20T01:34:26;23.10;1.00
11091;DHT22;5599;52.210;21.046;2023-08-20T01:36:55;23.00;1.00
11091;DHT22;5599;52.210;21.046;2023-08-20T01:39:24;22.90;99.90
11091;DHT22;5599;52.210;21.046;2023-08-20T01:41:53;22.90;99.90
11091;DHT22;5599;52.210;21.046;2023-08-20T01:44:28;22.80;99.90
11091;DHT22;5599;52.210;21.046;2023-08-20T01:46:57;22.80;99.90
11091;DHT22;5599;52.210;21.046;2023-08-20T01:49:29;22.80;99.90
11091;DHT22;5599;52.210;21.046;2023-08-20T01:51:58;22.90;99.90
11091;DHT22;5599;52.210;21.046;2023-08-20T01:54:27;23.00;1.00
11091;DHT22;5599;52.210;21.046;2023-08-20T01:56:56;23.00;1.00
11091;DHT22;5599;52.210;21.046;2023-08-20T01:59:27;23.00;1.00
11091;DHT22;5599;52.210;21.046;2023-08-20T02:01:56;23.00;1.00
11091;DHT22;5599;52.210;21.046;2023-08-20T02:04:26;22.90;1.00
11091;DHT22;5599;52.210;21.046;2023-08-20T02:06:55;22.80;34.00
11091;DHT22;5599;52.210;21.046;2023-08-20T02:09:24;22.90;99.90
11091;DHT22;5599;52.210;21.046;2023-08-20T02:11:53;22.80;99.90
11091;DHT22;5599;52.210;21.046;2023-08-20T02:14:22;22.80;99.90
11091;DHT22;5599;52.210;21.046;2023-08-20T02:16:53;22.70;99.90
11091;DHT22;5599;52.210;21.046;2023-08-20T02:19:22;22.70;99.90
11091;DHT22;5599;52.210;21.046;2023-08-20T02:21:53;22.70;99.90
11091;DHT22;5599;52.210;21.046;2023-08-20T02:24:22;22.70;1.00
11091;DHT22;5599;52.210;21.046;2023-08-20T02:26:51;22.60;1.00
11091;DHT22;5599;52.210;21.046;2023-08-20T02:29:20;22.50;1.00
11091;DHT22;5599;52.210;21.046;2023-08-20T02:31:49;22.40;1.00
11091;DHT22;5599;52.210;21.046;2023-08-20T02:34:19;22.40;1.00
11091;DHT22;5599;52.210;21.046;2023-08-20T02:36:48;22.40;1.00
11091;DHT22;5599;52.210;21.046;2023-08-20T02:39:17;22.40;99.90
11091;DHT22;5599;52.210;21.046;2023-08-20T02:41:47;22.30;99.90
11091;DHT22;5599;52.210;21.046;2023-08-20T02:44:16;22.30;1.00
11091;DHT22;5599;52.210;21.046;2023-08-20T02:46:46;22.30;1.00
11091;DHT22;5599;52.210;21.046;2023-08-20T02:49:15;22.20;1.00
11091;DHT22;5599;52.210;21.046;2023-08-20T02:51:46;22.20;99.90
11091;DHT22;5599;52.210;21.046;2023-08-20T02:54:15;22.10;99.90
11091;DHT22;5599;52.210;21.046;2023-08-20T02:56:44;22.00;99.90
11091;DHT22;5599;52.210;21.046;2023-08-20T02:59:13;21.90;1.00
11091;DHT22;5599;52.210;21.046;2023-08-20T03:01:42;21.80;1.00
11091;DHT22;5599;52.210;21.046;2023-08-20T03:04:11;21.80;1.00
11091;DHT22;5599;52.210;21.046;2023-08-20T03:06:40;21.70;1.00
11091;DHT22;5599;52.210;21.046;2023-08-20T03:09:10;21.60;1.00
11091;DHT22;5599;52.210;21.046;2023-08-20T03:11:40;21.60;1.00
11091;DHT22;5599;52.210;21.046;2023-08-20T03:14:09;21.60;1.00
11091;DHT22;5599;52.210;21.046;2023-08-20T03:16:38;21.70;1.00
11091;DHT22;5599;52.210;21.046;2023-08-20T03:19:07;21.70;1.00
11091;DHT22;5599;52.210;21.046;2023-08-20T03:21:36;21.70;1.00
11091;DHT22;5599;52.210;21.046;2023-08-20T03:24:06;21.80;1.00
11091;DHT22;5599;52.210;21.046;2023-08-20T03:26:37;21.80;1.00
11091;DHT22;5599;52.210;21.046;2023-08-20T03:29:07;21.90;1.00
11091;DHT22;5599;52.210;21.046;2023-08-20T03:31:38;22.00;1.00
11091;DHT22;5599;52.210;21.046;2023-08-20T03:34:07;22.00;1.00
11091;DHT22;5599;52.210;21.046;2023-08-20T03:36:37;22.10;1.00
11091;DHT22;5599;52.210;21.046;2023-08-20T03:39:07;22.10;1.00
11091;DHT22;5599;52.210;21.046;2023-08-20T03:41:37;22.20;1.00
11091;DHT22;5599;52.210;21.046;2023-08-20T03:44:07;22.20;1.00
11091;DHT22;5599;52.210;21.046;2023-08-20T03:46:35;22.30;1.00
11091;DHT22;5599;52.210;21.046;2023-08-20T03:49:04;22.30;1.00
11091;DHT22;5599;52.210;21.046;2023-08-20T03:51:34;22.30;1.00
11091;DHT22;5599;52.210;21.046;2023-08-20T03:54:03;22.40;1.00
11091;DHT22;5599;52.210;21.046;2023-08-20T03:56:32;22.50;1.00
11091;DHT22;5599;52.210;21.046;2023-08-20T03:59:03;22.60;99.90
11091;DHT22;5599;52.210;21.046;2023-08-20T04:01:32;22.60;99.90
11091;DHT22;5599;52.210;21.046;2023-08-20T04:04:03;22.70;99.90
11091;DHT22;5599;52.210;21.046;2023-08-20T04:06:33;22.70;99.90
11091;DHT22;5599;52.210;21.046;2023-08-20T04:09:02;22.80;99.90
11091;DHT22;5599;52.210;21.046;2023-08-20T04:11:32;22.80;99.90
11091;DHT22;5599;52.210;21.046;2023-08-20T04:14:04;22.80;99.90
11091;DHT22;5599;52.210;21.046;2023-08-20T04:16:33;22.70;99.90
11091;DHT22;5599;52.210;21.046;2023-08-20T04:19:03;22.70;99.90
11091;DHT22;5599;52.210;21.046;2023-08-20T04:21:32;22.70;99.90
11091;DHT22;5599;52.210;21.046;2023-08-20T04:24:01;22.70;99.90
11091;DHT22;5599;52.210;21.046;2023-08-20T04:26:30;22.70;99.90
11091;DHT22;5599;52.210;21.046;2023-08-20T04:29:00;22.70;99.90
11091;DHT22;5599;52.210;21.046;2023-08-20T04:31:31;22.70;99.90
11091;DHT22;5599;52.210;21.046;2023-08-20T04:34:06;22.90;99.90
11091;DHT22;5599;52.210;21.046;2023-08-20T04:36:40;23.10;99.90
11091;DHT22;5599;52.210;21.046;2023-08-20T04:39:09;23.30;99.90
11091;DHT22;5599;52.210;21.046;2023-08-20T04:41:43;23.70;99.90
11091;DHT22;5599;52.210;21.046;2023-08-20T04:44:15;24.10;99.90
11091;DHT22;5599;52.210;21.046;2023-08-20T04:46:47;24.50;1.00
11091;DHT22;5599;52.210;21.046;2023-08-20T04:49:17;24.80;4.70
11091;DHT22;5599;52.210;21.046;2023-08-20T04:51:47;25.20;1.00
11091;DHT22;5599;52.210;21.046;2023-08-20T04:54:17;25.60;99.90
11091;DHT22;5599;52.210;21.046;2023-08-20T04:56:46;26.00;1.00
11091;DHT22;5599;52.210;21.046;2023-08-20T04:59:15;26.40;99.90
11091;DHT22;5599;52.210;21.046;2023-08-20T05:01:54;26.70;1.00
11091;DHT22;5599;52.210;21.046;2023-08-20T05:04:39;26.90;88.20
11091;DHT22;5599;52.210;21.046;2023-08-20T05:07:08;27.10;99.90
11091;DHT22;5599;52.210;21.046;2023-08-20T05:09:38;27.10;1.00
11091;DHT22;5599;52.210;21.046;2023-08-20T05:12:08;27.40;1.00
11091;DHT22;5599;52.210;21.046;2023-08-20T05:14:37;27.70;99.90
11091;DHT22;5599;52.210;21.046;2023-08-20T05:17:08;28.00;99.90
11091;DHT22;5599;52.210;21.046;2023-08-20T05:19:37;28.30;35.90
11091;DHT22;5599;52.210;21.046;2023-08-20T05:22:06;28.70;1.00
11091;DHT22;5599;52.210;21.046;2023-08-20T05:24:35;29.00;1.00
11091;DHT22;5599;52.210;21.046;2023-08-20T05:27:06;29.20;99.90
11091;DHT22;5599;52.210;21.046;2023-08-20T05:29:36;29.60;99.90
11091;DHT22;5599;52.210;21.046;2023-08-20T05:32:08;30.00;99.90
11091;DHT22;5599;52.210;21.046;2023-08-20T05:34:37;30.30;76.40
11091;DHT22;5599;52.210;21.046;2023-08-20T05:37:07;30.80;99.90
11091;DHT22;5599;52.210;21.046;2023-08-20T05:39:37;31.10;11.60
11091;DHT22;5599;52.210;21.046;2023-08-20T05:42:06;31.30;1.00
11091;DHT22;5599;52.210;21.046;2023-08-20T05:44:37;31.50;1.00
11091;DHT22;5599;52.210;21.046;2023-08-20T05:47:12;31.80;99.90
11091;DHT22;5599;52.210;21.046;2023-08-20T05:49:41;32.20;99.90
11091;DHT22;5599;52.210;21.046;2023-08-20T05:52:10;32.50;99.90
11091;DHT22;5599;52.210;21.046;2023-08-20T05:54:40;32.70;99.90
11091;DHT22;5599;52.210;21.046;2023-08-20T05:57:10;33.10;99.90
11091;DHT22;5599;52.210;21.046;2023-08-20T05:59:39;33.30;99.90
11091;DHT22;5599;52.210;21.046;2023-08-20T06:02:08;33.70;99.90
11091;DHT22;5599;52.210;21.046;2023-08-20T06:04:38;34.10;99.90
11091;DHT22;5599;52.210;21.046;2023-08-20T06:07:07;34.30;92.70
11091;DHT22;5599;52.210;21.046;2023-08-20T06:09:36;34.70;99.90
11091;DHT22;5599;52.210;21.046;2023-08-20T06:12:06;34.90;99.90
11091;DHT22;5599;52.210;21.046;2023-08-20T06:14:35;35.20;86.60
11091;DHT22;5599;52.210;21.046;2023-08-20T06:17:04;35.50;99.90
11091;DHT22;5599;52.210;21.046;2023-08-20T06:19:34;35.70;1.00
11091;DHT22;5599;52.210;21.046;2023-08-20T06:22:06;36.00;1.00
11091;DHT22;5599;52.210;21.046;2023-08-20T06:24:36;36.20;1.00
11091;DHT22;5599;52.210;21.046;2023-08-20T06:27:05;36.40;99.90
11091;DHT22;5599;52.210;21.046;2023-08-20T06:29:34;36.50;99.90
11091;DHT22;5599;52.210;21.046;2023-08-20T06:32:03;36.60;1.00
11091;DHT22;5599;52.210;21.046;2023-08-20T06:34:34;36.80;99.90
11091;DHT22;5599;52.210;21.046;2023-08-20T06:37:05;37.00;99.90
11091;DHT22;5599;52.210;21.046;2023-08-20T06:39:34;37.20;99.90
11091;DHT22;5599;52.210;21.046;2023-08-20T06:42:03;37.30;99.90
11091;DHT22;5599;52.210;21.046;2023-08-20T06:44:32;37.50;99.90
11091;DHT22;5599;52.210;21.046;2023-08-20T06:47:02;37.60;99.90
11091;DHT22;5599;52.210;21.046;2023-08-20T06:49:32;37.60;99.90
11091;DHT22;5599;52.210;21.046;2023-08-20T06:52:01;37.70;1.00
11091;DHT22;5599;52.210;21.046;2023-08-20T06:54:31;37.90;99.90
11091;DHT22;5599;52.210;21.046;2023-08-20T06:57:00;38.00;99.90
11091;DHT22;5599;52.210;21.046;2023-08-20T06:59:29;38.40;99.90
11091;DHT22;5599;52.210;21.046;2023-08-20T07:01:58;38.60;99.90
11091;DHT22;5599;52.210;21.046;2023-08-20T07:04:28;38.50;1.00
11091;DHT22;5599;52.210;21.046;2023-08-20T07:06:57;38.40;99.90
11091;DHT22;5599;52.210;21.046;2023-08-20T07:09:26;38.70;99.90
11091;DHT22;5599;52.210;21.046;2023-08-20T07:11:56;38.50;99.90
11091;DHT22;5599;52.210;21.046;2023-08-20T07:14:25;38.60;99.90
11091;DHT22;5599;52.210;21.046;2023-08-20T07:16:54;38.90;99.90
11091;DHT22;5599;52.210;21.046;2023-08-20T07:19:23;38.90;99.90
11091;DHT22;5599;52.210;21.046;2023-08-20T07:21:52;38.50;99.90
11091;DHT22;5599;52.210;21.046;2023-08-20T07:24:21;38.10;99.90
11091;DHT22;5599;52.210;21.046;2023-08-20T07:26:53;37.80;96.20
11091;DHT22;5599;52.210;21.046;2023-08-20T07:29:29;37.30;99.90
11091;DHT22;5599;52.210;21.046;2023-08-20T07:31:58;36.80;99.90
11091;DHT22;5599;52.210;21.046;2023-08-20T07:34:30;36.40;99.90
11091;DHT22;5599;52.210;21.046;2023-08-20T07:37:01;36.00;60.40
11091;DHT22;5599;52.210;21.046;2023-08-20T07:39:30;36.00;99.90
11091;DHT22;5599;52.210;21.046;2023-08-20T07:41:59;36.40;99.90
11091;DHT22;5599;52.210;21.046;2023-08-20T07:44:30;36.50;99.90
11091;DHT22;5599;52.210;21.046;2023-08-20T07:46:59;36.90;99.90
11091;DHT22;5599;52.210;21.046;2023-08-20T07:49:29;37.50;99.90
11091;DHT22;5599;52.210;21.046;2023-08-20T07:51:59;38.00;99.90
11091;DHT22;5599;52.210;21.046;2023-08-20T07:54:28;38.30;99.90
11091;DHT22;5599;52.210;21.046;2023-08-20T07:56:57;38.50;72.20
11091;DHT22;5599;52.210;21.046;2023-08-20T07:59:26;38.90;99.90
11091;DHT22;5599;52.210;21.046;2023-08-20T08:01:56;39.20;99.90
11091;DHT22;5599;52.210;21.046;2023-08-20T08:04:25;38.90;21.20
11091;DHT22;5599;52.210;21.046;2023-08-20T08:06:54;38.30;99.90
11091;DHT22;5599;52.210;21.046;2023-08-20T08:09:26;38.00;99.90
11091;DHT22;5599;52.210;21.046;2023-08-20T08:11:56;37.10;99.90
11091;DHT22;5599;52.210;21.046;2023-08-20T08:14:25;36.60;1.00
11091;DHT22;5599;52.210;21.046;2023-08-20T08:16:56;36.50;99.90
11091;DHT22;5599;52.210;21.046;2023-08-20T08:19:25;36.60;99.90
11091;DHT22;5599;52.210;21.046;2023-08-20T08:21:54;36.80;99.90
11091;DHT22;5599;52.210;21.046;2023-08-20T08:24:23;37.00;99.90
11091;DHT22;5599;52.210;21.046;2023-08-20T08:26:52;37.10;99.90
11091;DHT22;5599;52.210;21.046;2023-08-20T08:29:22;37.30;1.00
11091;DHT22;5599;52.210;21.046;2023-08-20T08:31:51;37.10;1.00
11091;DHT22;5599;52.210;21.046;2023-08-20T08:34:21;36.80;99.90
11091;DHT22;5599;52.210;21.046;2023-08-20T08:36:50;37.00;94.20
11091;DHT22;5599;52.210;21.046;2023-08-20T08:39:19;37.50;99.90
11091;DHT22;5599;52.210;21.046;2023-08-20T08:41:50;37.70;99.90
11091;DHT22;5599;52.210;21.046;2023-08-20T08:44:21;37.70;99.90
11091;DHT22;5599;52.210;21.046;2023-08-20T08:46:51;37.20;99.90
11091;DHT22;5599;52.210;21.046;2023-08-20T08:49:22;37.30;99.90
11091;DHT22;5599;52.210;21.046;2023-08-20T08:51:51;37.70;99.90
11091;DHT22;5599;52.210;21.046;2023-08-20T08:54:22;37.60;99.90
11091;DHT22;5599;52.210;21.046;2023-08-20T08:56:52;37.00;99.90
11091;DHT22;5599;52.210;21.046;2023-08-20T08:59:21;36.40;99.90
11091;DHT22;5599;52.210;21.046;2023-08-20T09:01:50;35.40;1.00
11091;DHT22;5599;52.210;21.046;2023-08-20T09:04:21;34.90;1.00
11091;DHT22;5599;52.210;21.046;2023-08-20T09:06:51;34.90;1.00
11091;DHT22;5599;52.210;21.046;2023-08-20T09:09:21;35.10;99.90
11091;DHT22;5599;52.210;21.046;2023-08-20T09:11:50;35.30;99.90
11091;DHT22;5599;52.210;21.046;2023-08-20T09:14:23;35.40;1.00
11091;DHT22;5599;52.210;21.046;2023-08-20T09:16:55;34.90;99.90
11091;DHT22;5599;52.210;21.046;2023-08-20T09:19:28;35.00;50.50
11091;DHT22;5599;52.210;21.046;2023-08-20T09:22:00;35.30;1.00
11091;DHT22;5599;52.210;21.046;2023-08-20T09:24:33;35.00;99.90
11091;DHT22;5599;52.210;21.046;2023-08-20T09:27:04;35.30;99.90
11091;DHT22;5599;52.210;21.046;2023-08-20T09:29:34;35.70;99.90
11091;DHT22;5599;52.210;21.046;2023-08-20T09:32:14;36.20;99.90
11091;DHT22;5599;52.210;21.046;2023-08-20T09:34:45;36.60;99.90
11091;DHT22;5599;52.210;21.046;2023-08-20T09:37:15;36.80;99.90
11091;DHT22;5599;52.210;21.046;2023-08-20T09:39:44;37.00;1.00
11091;DHT22;5599;52.210;21.046;2023-08-20T09:42:15;37.00;99.90
11091;DHT22;5599;52.210;21.046;2023-08-20T09:44:45;36.80;99.90
11091;DHT22;5599;52.210;21.046;2023-08-20T09:47:17;36.70;99.90
11091;DHT22;5599;52.210;21.046;2023-08-20T09:49:49;36.60;99.90
11091;DHT22;5599;52.210;21.046;2023-08-20T09:52:24;36.90;99.90
11091;DHT22;5599;52.210;21.046;2023-08-20T09:55:00;37.10;1.00
11091;DHT22;5599;52.210;21.046;2023-08-20T09:57:34;37.40;1.00
11091;DHT22;5599;52.210;21.046;2023-08-20T10:00:06;37.40;1.00
11091;DHT22;5599;52.210;21.046;2023-08-20T10:02:41;37.60;99.90
11091;DHT22;5599;52.210;21.046;2023-08-20T10:05:12;37.60;99.90
11091;DHT22;5599;52.210;21.046;2023-08-20T10:07:44;37.80;57.40
11091;DHT22;5599;52.210;21.046;2023-08-20T10:10:14;38.00;99.90
11091;DHT22;5599;52.210;21.046;2023-08-20T10:12:45;38.20;94.40
11091;DHT22;5599;52.210;21.046;2023-08-20T10:15:16;38.40;99.90
11091;DHT22;5599;52.210;21.046;2023-08-20T10:17:45;38.30;99.90
11091;DHT22;5599;52.210;21.046;2023-08-20T10:20:18;38.00;1.00
11091;DHT22;5599;52.210;21.046;2023-08-20T10:22:50;37.80;99.90
11091;DHT22;5599;52.210;21.046;2023-08-20T10:25:23;38.00;99.90
11091;DHT22;5599;52.210;21.046;2023-08-20T10:27:53;38.00;99.90
11091;DHT22;5599;52.210;21.046;2023-08-20T10:30:24;37.80;2.70
11091;DHT22;5599;52.210;21.046;2023-08-20T10:32:56;37.60;99.90
11091;DHT22;5599;52.210;21.046;2023-08-20T10:35:47;37.30;99.90
11091;DHT22;5599;52.210;21.046;2023-08-20T10:38:17;37.10;71.20
11091;DHT22;5599;52.210;21.046;2023-08-20T10:40:48;36.80;1.00
11091;DHT22;5599;52.210;21.046;2023-08-20T10:43:30;37.00;1.00
11091;DHT22;5599;52.210;21.046;2023-08-20T10:46:06;36.90;99.90
11091;DHT22;5599;52.210;21.046;2023-08-20T10:48:38;37.10;99.90
11091;DHT22;5599;52.210;21.046;2023-08-20T10:51:11;37.00;99.90
11091;DHT22;5599;52.210;21.046;2023-08-20T10:53:41;37.20;1.00
11091;DHT22;5599;52.210;21.046;2023-08-20T10:56:12;37.20;99.90
11091;DHT22;5599;52.210;21.046;2023-08-20T10:58:44;37.00;99.90
11091;DHT22;5599;52.210;21.046;2023-08-20T11:01:21;36.90;99.90
11091;DHT22;5599;52.210;21.046;2023-08-20T11:03:51;37.10;99.90
11091;DHT22;5599;52.210;21.046;2023-08-20T11:06:21;37.30;64.00
11091;DHT22;5599;52.210;21.046;2023-08-20T11:08:51;37.30;99.90
11091;DHT22;5599;52.210;21.046;2023-08-20T11:11:20;37.00;99.90
11091;DHT22;5599;52.210;21.046;2023-08-20T11:13:49;36.70;99.90
11091;DHT22;5599;52.210;21.046;2023-08-20T11:16:19;36.60;99.90
11091;DHT22;5599;52.210;21.046;2023-08-20T11:18:48;36.70;99.90
11091;DHT22;5599;52.210;21.046;2023-08-20T11:21:22;36.90;99.90
11091;DHT22;5599;52.210;21.046;2023-08-20T11:23:51;37.10;99.90
11091;DHT22;5599;52.210;21.046;2023-08-20T11:26:22;37.20;99.90
11091;DHT22;5599;52.210;21.046;2023-08-20T11:28:51;37.40;1.00
11091;DHT22;5599;52.210;21.046;2023-08-20T11:31:20;37.40;99.90
11091;DHT22;5599;52.210;21.046;2023-08-20T11:33:50;37.40;1.00
11091;DHT22;5599;52.210;21.046;2023-08-20T11:36:22;37.30;99.90
11091;DHT22;5599;52.210;21.046;2023-08-20T11:38:51;37.30;99.90
11091;DHT22;5599;52.210;21.046;2023-08-20T11:41:21;37.50;99.90
11091;DHT22;5599;52.210;21.046;2023-08-20T11:43:52;37.60;99.90
11091;DHT22;5599;52.210;21.046;2023-08-20T11:46:23;37.70;99.90
11091;DHT22;5599;52.210;21.046;2023-08-20T11:49:02;37.90;76.40
11091;DHT22;5599;52.210;21.046;2023-08-20T11:51:37;38.00;99.90
11091;DHT22;5599;52.210;21.046;2023-08-20T11:54:09;38.10;1.00
11091;DHT22;5599;52.210;21.046;2023-08-20T11:56:45;37.90;99.90
11091;DHT22;5599;52.210;21.046;2023-08-20T11:59:15;37.90;99.90
11091;DHT22;5599;52.210;21.046;2023-08-20T12:01:50;37.80;1.00
11091;DHT22;5599;52.210;21.046;2023-08-20T12:04:24;37.90;1.00
11091;DHT22;5599;52.210;21.046;2023-08-20T12:07:05;37.90;99.90
11091;DHT22;5599;52.210;21.046;2023-08-20T12:09:35;38.10;99.90
11091;DHT22;5599;52.210;21.046;2023-08-20T12:12:06;38.10;99.90
11091;DHT22;5599;52.210;21.046;2023-08-20T12:14:36;38.00;99.90
11091;DHT22;5599;52.210;21.046;2023-08-20T12:17:05;37.90;75.10
11091;DHT22;5599;52.210;21.046;2023-08-20T12:19:34;37.80;1.00
11091;DHT22;5599;52.210;21.046;2023-08-20T12:22:04;37.50;99.90
11091;DHT22;5599;52.210;21.046;2023-08-20T12:24:33;36.90;99.90
11091;DHT22;5599;52.210;21.046;2023-08-20T12:27:03;36.40;99.90
11091;DHT22;5599;52.210;21.046;2023-08-20T12:29:32;36.20;1.00
11091;DHT22;5599;52.210;21.046;2023-08-20T12:32:01;36.20;99.90
11091;DHT22;5599;52.210;21.046;2023-08-20T12:34:31;36.40;99.90
11091;DHT22;5599;52.210;21.046;2023-08-20T12:37:00;36.60;99.90
11091;DHT22;5599;52.210;21.046;2023-08-20T12:39:31;36.80;99.90
11091;DHT22;5599;52.210;21.046;2023-08-20T12:42:00;36.90;92.60
11091;DHT22;5599;52.210;21.046;2023-08-20T12:44:30;37.00;1.00
11091;DHT22;5599;52.210;21.046;2023-08-20T12:46:59;37.00;25.00
11091;DHT22;5599;52.210;21.046;2023-08-20T12:49:29;37.10;2.40
11091;DHT22;5599;52.210;21.046;2023-08-20T12:51:58;37.00;1.00
11091;DHT22;5599;52.210;21.046;2023-08-20T12:54:27;37.20;20.20
11091;DHT22;5599;52.210;21.046;2023-08-20T12:56:58;37.30;98.80
11091;DHT22;5599;52.210;21.046;2023-08-20T12:59:27;37.50;91.90
11091;DHT22;5599;52.210;21.046;2023-08-20T13:01:56;37.40;74.10
11091;DHT22;5599;52.210;21.046;2023-08-20T13:04:26;37.30;86.30
11091;DHT22;5599;52.210;21.046;2023-08-20T13:06:57;37.30;1.00
11091;DHT22;5599;52.210;21.046;2023-08-20T13:09:26;37.30;34.00
11091;DHT22;5599;52.210;21.046;2023-08-20T13:11:58;37.20;70.30
11091;DHT22;5599;52.210;21.046;2023-08-20T13:14:31;37.10;1.00
11091;DHT22;5599;52.210;21.046;2023-08-20T13:17:01;37.10;97.50
11091;DHT22;5599;52.210;21.046;2023-08-20T13:19:31;37.10;1.00
11091;DHT22;5599;52.210;21.046;2023-08-20T13:22:00;37.00;99.90
11091;DHT22;5599;52.210;21.046;2023-08-20T13:24:30;36.80;1.00
11091;DHT22;5599;52.210;21.046;2023-08-20T13:27:00;36.70;1.00
11091;DHT22;5599;52.210;21.046;2023-08-20T13:29:30;36.70;1.00
11091;DHT22;5599;52.210;21.046;2023-08-20T13:31:59;36.50;99.90
11091;DHT22;5599;52.210;21.046;2023-08-20T13:34:28;36.50;2.30
11091;DHT22;5599;52.210;21.046;2023-08-20T13:36:58;36.60;63.40
11091;DHT22;5599;52.210;21.046;2023-08-20T13:39:27;36.70;99.90
11091;DHT22;5599;52.210;21.046;2023-08-20T13:41:56;36.70;1.90
11091;DHT22;5599;52.210;21.046;2023-08-20T13:44:27;36.40;94.50
11091;DHT22;5599;52.210;21.046;2023-08-20T13:46:56;36.30;98.20
11091;DHT22;5599;52.210;21.046;2023-08-20T13:49:25;36.20;92.60
11091;DHT22;5599;52.210;21.046;2023-08-20T13:51:55;36.10;67.70
11091;DHT22;5599;52.210;21.046;2023-08-20T13:54:24;36.20;87.00
11091;DHT22;5599;52.210;21.046;2023-08-20T13:56:53;35.80;1.00
11091;DHT22;5599;52.210;21.046;2023-08-20T13:59:24;35.80;1.00
11091;DHT22;5599;52.210;21.046;2023-08-20T14:01:56;35.90;99.90
11091;DHT22;5599;52.210;21.046;2023-08-20T14:04:25;36.10;99.90
11091;DHT22;5599;52.210;21.046;2023-08-20T14:06:55;36.00;99.90
11091;DHT22;5599;52.210;21.046;2023-08-20T14:09:25;35.80;1.00
11091;DHT22;5599;52.210;21.046;2023-08-20T14:11:55;35.70;23.60
11091;DHT22;5599;52.210;21.046;2023-08-20T14:14:25;35.50;99.90
11091;DHT22;5599;52.210;21.046;2023-08-20T14:16:56;35.40;76.30
11091;DHT22;5599;52.210;21.046;2023-08-20T14:19:26;35.30;99.90
11091;DHT22;5599;52.210;21.046;2023-08-20T14:21:56;35.10;95.00
11091;DHT22;5599;52.210;21.046;2023-08-20T14:24:25;35.00;8.40
11091;DHT22;5599;52.210;21.046;2023-08-20T14:26:55;34.80;99.90
11091;DHT22;5599;52.210;21.046;2023-08-20T14:29:24;34.90;69.00
11091;DHT22;5599;52.210;21.046;2023-08-20T14:31:54;34.80;6.80
11091;DHT22;5599;52.210;21.046;2023-08-20T14:34:24;34.70;99.80
11091;DHT22;5599;52.210;21.046;2023-08-20T14:36:54;34.60;27.20
11091;DHT22;5599;52.210;21.046;2023-08-20T14:39:23;34.60;99.90
11091;DHT22;5599;52.210;21.046;2023-08-20T14:41:53;34.70;21.80
11091;DHT22;5599;52.210;21.046;2023-08-20T14:44:22;34.50;12.60
11091;DHT22;5599;52.210;21.046;2023-08-20T14:46:52;34.40;99.90
11091;DHT22;5599;52.210;21.046;2023-08-20T14:49:21;34.30;99.90
11091;DHT22;5599;52.210;21.046;2023-08-20T14:51:52;34.30;1.00
11091;DHT22;5599;52.210;21.046;2023-08-20T14:54:36;34.10;40.40
11091;DHT22;5599;52.210;21.046;2023-08-20T14:57:06;34.10;99.90
11091;DHT22;5599;52.210;21.046;2023-08-20T14:59:35;34.10;99.90
11091;DHT22;5599;52.210;21.046;2023-08-20T15:02:05;34.20;99.90
11091;DHT22;5599;52.210;21.046;2023-08-20T15:04:34;34.20;51.50
11091;DHT22;5599;52.210;21.046;2023-08-20T15:07:05;34.00;99.90
11091;DHT22;5599;52.210;21.046;2023-08-20T15:09:34;34.00;99.90
11091;DHT22;5599;52.210;21.046;2023-08-20T15:12:04;34.10;1.00
11091;DHT22;5599;52.210;21.046;2023-08-20T15:14:34;34.00;1.00
11091;DHT22;5599;52.210;21.046;2023-08-20T15:17:04;34.00;99.90
11091;DHT22;5599;52.210;21.046;2023-08-20T15:19:33;34.00;94.00
11091;DHT22;5599;52.210;21.046;2023-08-20T15:22:03;34.00;99.90
11091;DHT22;5599;52.210;21.046;2023-08-20T15:24:34;33.90;42.10
11091;DHT22;5599;52.210;21.046;2023-08-20T15:27:03;33.90;99.90
11091;DHT22;5599;52.210;21.046;2023-08-20T15:29:33;33.90;1.00
11091;DHT22;5599;52.210;21.046;2023-08-20T15:32:03;33.80;1.00
11091;DHT22;5599;52.210;21.046;2023-08-20T15:34:33;33.70;12.30
11091;DHT22;5599;52.210;21.046;2023-08-20T15:37:03;33.70;99.90
11091;DHT22;5599;52.210;21.046;2023-08-20T15:39:34;33.70;1.00
11091;DHT22;5599;52.210;21.046;2023-08-20T15:42:04;33.80;57.70
11091;DHT22;5599;52.210;21.046;2023-08-20T15:44:34;33.70;25.00
11091;DHT22;5599;52.210;21.046;2023-08-20T15:47:04;33.80;1.00
11091;DHT22;5599;52.210;21.046;2023-08-20T15:49:34;33.80;18.80
11091;DHT22;5599;52.210;21.046;2023-08-20T15:52:04;33.70;99.90
11091;DHT22;5599;52.210;21.046;2023-08-20T15:54:34;33.60;95.90
11091;DHT22;5599;52.210;21.046;2023-08-20T15:57:04;33.60;99.90